Airfield :
LOGIN :

Register | Disclaimer

   EN    FR    IT 

 










Legend :    VFR   Marginal VFR   IFR   Intensive IFR   Very Intensive IFR
Visi :
Ceiling :
>= 8 km
>= 3000ft
5 to 8 km
1000 to 3000 ft
1500m to 5 km
500 to 1000 ft
800 to 1500m
200 to 500 ft
< 800m
< 200 ft
Symbols :   Thunderstorms  Fog  Heavy snow  Heavy precipitations  Wind > 20 kt
SIGMETs :     Misc.  Thunderstorms  Icing  Turbulence  Mountain Waves  Volcanic Ashes






- Airport Elevation : 22 ft
- IATA code : LDY


EGAE - Londonderry Eglington

CURRENT METAR :
  • 222050Z 08005KT 9999 FEW016 SCT030 BKN049 07/06 Q0995

EXPIRED METARs :
  • 222020Z 08006KT 9999 FEW016 SCT034 BKN049 07/06 Q0995
  • 221950Z 09004KT 9999 FEW016 BKN034 07/06 Q0994
  • 221920Z 12003KT 9999 FEW016 BKN033 06/06 Q0994
  • 221820Z 10004KT 9999 FEW011 SCT047 06/06 Q0994

Expired Forecast.



MET'MAP, your aeronautical weather chart ! - Copyright ORBIFLY December 2007 - Disclaimer

ORBIFLY MET'MAP TEAM :

Programming & Development : Alexandra Zaïnal
Concept & Development : Baudouin d'Aumeries
Co-Development & Prog : Marc-Olivier Méhu
Technical & hardware support : Manuel Goepfert

Contact : metmap@orbifly.com




SOURCES & CREDITS :

   NOAA